Time,TemperatureF,DewpointF,PressureIn,WindDirection,WindDirectionDegrees,WindSpeedMPH,WindSpeedGustMPH,Humidity,HourlyPrecipIn,Conditions,Clouds,dailyrainin,SoftwareType,DateUTC
2013-05-08 00:06:00,54.6,49.0,30.01,NE,44,0.0,-999.0,82,-99.99,,,0.00,weatherlink.com 1.10,2013-05-08 04:06:00,
2013-05-08 00:21:00,54.9,49.0,30.01,NE,44,0.0,-999.0,81,-99.99,,,0.00,weatherlink.com 1.10,2013-05-08 04:21:00,
2013-05-08 00:36:00,54.9,49.0,30.01,ESE,119,0.0,-999.0,81,-99.99,,,0.00,weatherlink.com 1.10,2013-05-08 04:36:00,
2013-05-08 00:51:00,54.7,49.0,30.01,ESE,119,0.0,-999.0,81,-99.99,,,0.00,weatherlink.com 1.10,2013-05-08 04:51:00,
2013-05-08 01:06:00,54.3,49.0,30.01,ESE,119,0.0,-999.0,82,-99.99,,,0.00,weatherlink.com 1.10,2013-05-08 05:06:00,
2013-05-08 01:21:00,54.2,49.0,30.01,ESE,119,0.0,-999.0,83,-99.99,,,0.00,weatherlink.com 1.10,2013-05-08 05:21:00,
2013-05-08 01:36:00,54.2,49.0,30.00,ESE,119,0.0,-999.0,83,-99.99,,,0.00,weatherlink.com 1.10,2013-05-08 05:36:00,
2013-05-08 01:51:00,54.5,49.0,30.00,East,92,0.0,-999.0,81,-99.99,,,0.00,weatherlink.com 1.10,2013-05-08 05:51:00,
2013-05-08 02:06:00,54.7,49.0,30.00,East,92,0.0,-999.0,81,-99.99,,,0.00,weatherlink.com 1.10,2013-05-08 06:06:00,
2013-05-08 02:21:00,54.5,48.0,29.99,NNE,30,0.0,-999.0,80,-99.99,,,0.00,weatherlink.com 1.10,2013-05-08 06:21:00,
2013-05-08 02:36:00,54.5,48.0,29.98,North,11,1.0,-999.0,80,-99.99,,,0.00,weatherlink.com 1.10,2013-05-08 06:36:00,
2013-05-08 02:51:00,55.0,48.0,29.98,North,359,1.0,-999.0,77,-99.99,,,0.00,weatherlink.com 1.10,2013-05-08 06:51:00,
2013-05-08 03:06:00,55.2,48.0,29.98,NNE,25,1.0,-999.0,77,-99.99,,,0.00,weatherlink.com 1.10,2013-05-08 07:06:00,
2013-05-08 03:21:00,54.9,48.0,29.97,NNE,19,2.0,-999.0,78,-99.99,,,0.00,weatherlink.com 1.10,2013-05-08 07:21:00,
2013-05-08 03:36:00,54.9,48.0,29.98,NNW,338,2.0,-999.0,78,-99.99,,,0.00,weatherlink.com 1.10,2013-05-08 07:36:00,
2013-05-08 03:51:00,54.6,48.0,29.98,ENE,70,1.0,-999.0,79,-99.99,,,0.00,weatherlink.com 1.10,2013-05-08 07:51:00,
2013-05-08 04:06:00,54.8,48.0,29.98,NE,54,1.0,-999.0,78,-99.99,,,0.00,weatherlink.com 1.10,2013-05-08 08:06:00,
2013-05-08 04:21:00,55.2,48.0,29.98,NE,43,1.0,-999.0,76,-99.99,,,0.00,weatherlink.com 1.10,2013-05-08 08:21:00,
2013-05-08 04:36:00,53.6,48.0,29.99,NNW,346,0.0,-999.0,81,-99.99,,,0.00,weatherlink.com 1.10,2013-05-08 08:36:00,
2013-05-08 04:51:00,52.4,48.0,29.99,NNE,29,0.0,-999.0,85,-99.99,,,0.00,weatherlink.com 1.10,2013-05-08 08:51:00,
2013-05-08 05:06:00,52.9,48.0,29.99,NE,46,1.0,-999.0,83,-99.99,,,0.00,weatherlink.com 1.10,2013-05-08 09:06:00,
2013-05-08 05:21:00,53.4,48.0,30.00,SSE,148,0.0,-999.0,81,-99.99,,,0.00,weatherlink.com 1.10,2013-05-08 09:21:00,
2013-05-08 05:36:00,53.1,48.0,30.00,SE,143,0.0,-999.0,83,-99.99,,,0.00,weatherlink.com 1.10,2013-05-08 09:36:00,
2013-05-08 05:51:00,52.7,48.0,30.00,SE,140,0.0,-999.0,85,-99.99,,,0.00,weatherlink.com 1.10,2013-05-08 09:51:00,
2013-05-08 06:06:00,52.0,48.0,30.00,WNW,285,0.0,-999.0,87,-99.99,,,0.00,weatherlink.com 1.10,2013-05-08 10:06:00,
2013-05-08 06:21:00,52.5,48.0,30.00,NE,44,0.0,-999.0,85,-99.99,,,0.00,weatherlink.com 1.10,2013-05-08 10:21:00,
2013-05-08 06:36:00,53.1,48.0,30.00,NW,315,1.0,-999.0,82,-99.99,,,0.00,weatherlink.com 1.10,2013-05-08 10:36:00,
2013-05-08 06:51:00,53.4,47.0,30.01,West,263,0.0,-999.0,80,-99.99,,,0.00,weatherlink.com 1.10,2013-05-08 10:51:00,
2013-05-08 07:06:00,54.3,47.0,30.01,NNE,15,1.0,-999.0,77,-99.99,,,0.00,weatherlink.com 1.10,2013-05-08 11:06:00,
2013-05-08 07:21:00,54.9,47.0,30.02,West,262,0.0,-999.0,75,-99.99,,,0.00,weatherlink.com 1.10,2013-05-08 11:21:00,
2013-05-08 07:36:00,55.3,47.0,30.02,NNE,26,1.0,-999.0,74,-99.99,,,0.00,weatherlink.com 1.10,2013-05-08 11:36:00,
2013-05-08 07:51:00,56.1,47.0,30.03,NNE,23,0.0,-999.0,72,-99.99,,,0.00,weatherlink.com 1.10,2013-05-08 11:51:00,
2013-05-08 08:06:00,56.3,48.0,30.04,NE,51,1.0,-999.0,73,-99.99,,,0.00,weatherlink.com 1.10,2013-05-08 12:06:00,
2013-05-08 08:21:00,56.4,48.0,30.03,SSW,206,0.0,-999.0,74,-99.99,,,0.00,weatherlink.com 1.10,2013-05-08 12:21:00,
2013-05-08 08:36:00,56.0,49.0,30.03,WNW,284,0.0,-999.0,78,-99.99,,,0.00,weatherlink.com 1.10,2013-05-08 12:36:00,
2013-05-08 08:51:00,57.2,49.0,30.03,NNE,29,0.0,-999.0,75,-99.99,,,0.00,weatherlink.com 1.10,2013-05-08 12:51:00,
2013-05-08 09:06:00,58.7,49.0,30.04,ESE,102,0.0,-999.0,69,-99.99,,,0.00,weatherlink.com 1.10,2013-05-08 13:06:00,
2013-05-08 09:21:00,60.1,51.0,30.04,SSW,208,2.0,-999.0,73,-99.99,,,0.00,weatherlink.com 1.10,2013-05-08 13:21:00,
2013-05-08 09:36:00,59.1,50.0,30.05,SSW,203,2.0,-999.0,73,-99.99,,,0.00,weatherlink.com 1.10,2013-05-08 13:36:00,
2013-05-08 09:51:00,58.8,51.0,30.05,SSE,153,0.0,-999.0,75,-99.99,,,0.00,weatherlink.com 1.10,2013-05-08 13:51:00,
2013-05-08 10:06:00,61.1,52.0,30.05,South,191,0.0,-999.0,71,-99.99,,,0.00,weatherlink.com 1.10,2013-05-08 14:06:00,
2013-05-08 10:21:00,61.6,53.0,30.05,SSW,210,1.0,-999.0,74,-99.99,,,0.00,weatherlink.com 1.10,2013-05-08 14:21:00,
2013-05-08 10:36:00,60.6,53.0,30.05,South,187,1.0,-999.0,76,-99.99,,,0.00,weatherlink.com 1.10,2013-05-08 14:36:00,
2013-05-08 10:51:00,60.6,53.0,30.05,SSE,160,0.0,-999.0,77,-99.99,,,0.00,weatherlink.com 1.10,2013-05-08 14:51:00,
2013-05-08 11:06:00,60.6,54.0,30.06,SSW,195,1.0,-999.0,79,-99.99,,,0.00,weatherlink.com 1.10,2013-05-08 15:06:00,
2013-05-08 11:21:00,60.2,54.0,30.06,NW,323,0.0,-999.0,81,-99.99,,,0.00,weatherlink.com 1.10,2013-05-08 15:21:00,
2013-05-08 11:36:00,60.0,55.0,30.06,SSE,165,0.0,-999.0,84,-99.99,,,0.00,weatherlink.com 1.10,2013-05-08 15:36:00,
2013-05-08 11:51:00,60.2,57.0,30.06,South,177,1.0,-999.0,88,-99.99,,,0.00,weatherlink.com 1.10,2013-05-08 15:51:00,
2013-05-08 12:06:00,61.5,56.0,30.05,South,170,0.0,-999.0,81,-99.99,,,0.00,weatherlink.com 1.10,2013-05-08 16:06:00,
2013-05-08 12:21:00,62.9,55.0,30.05,South,183,3.0,-999.0,75,-99.99,,,0.00,weatherlink.com 1.10,2013-05-08 16:21:00,
2013-05-08 12:36:00,62.0,55.0,30.05,SSW,210,1.0,-999.0,79,-99.99,,,0.00,weatherlink.com 1.10,2013-05-08 16:36:00,
2013-05-08 12:51:00,62.4,56.0,30.05,SE,146,0.0,-999.0,79,-99.99,,,0.00,weatherlink.com 1.10,2013-05-08 16:51:00,
2013-05-08 13:06:00,62.3,56.0,30.05,SSW,200,2.0,-999.0,81,-99.99,,,0.00,weatherlink.com 1.10,2013-05-08 17:06:00,
2013-05-08 13:21:00,62.8,57.0,30.05,South,191,2.0,-999.0,81,-99.99,,,0.00,weatherlink.com 1.10,2013-05-08 17:21:00,
2013-05-08 13:36:00,65.1,57.0,30.04,South,181,2.0,-999.0,75,-99.99,,,0.00,weatherlink.com 1.10,2013-05-08 17:36:00,
2013-05-08 13:51:00,67.7,58.0,30.04,West,277,0.0,-999.0,70,-99.99,,,0.00,weatherlink.com 1.10,2013-05-08 17:51:00,
2013-05-08 14:06:00,66.2,57.0,30.04,WNW,294,2.0,-999.0,71,-99.99,,,0.00,weatherlink.com 1.10,2013-05-08 18:06:00,
2013-05-08 14:21:00,65.3,56.0,30.04,SSE,163,0.0,-999.0,73,-99.99,,,0.00,weatherlink.com 1.10,2013-05-08 18:21:00,
2013-05-08 14:36:00,65.8,57.0,30.04,ESE,109,0.0,-999.0,73,-99.99,,,0.00,weatherlink.com 1.10,2013-05-08 18:36:00,
2013-05-08 14:51:00,66.1,56.0,30.04,SW,218,2.0,-999.0,71,-99.99,,,0.00,weatherlink.com 1.10,2013-05-08 18:51:00,
2013-05-08 15:06:00,65.9,57.0,30.03,WSW,252,0.0,-999.0,72,-99.99,,,0.00,weatherlink.com 1.10,2013-05-08 19:06:00,
2013-05-08 15:21:00,66.0,58.0,30.03,SSW,206,0.0,-999.0,74,-99.99,,,0.00,weatherlink.com 1.10,2013-05-08 19:21:00,
2013-05-08 15:36:00,67.1,57.0,30.03,SW,236,1.0,-999.0,69,-99.99,,,0.00,weatherlink.com 1.10,2013-05-08 19:36:00,
2013-05-08 15:51:00,67.7,56.0,30.03,South,172,1.0,-999.0,66,-99.99,,,0.00,weatherlink.com 1.10,2013-05-08 19:51:00,
2013-05-08 16:06:00,66.8,57.0,30.03,SSW,195,1.0,-999.0,70,-99.99,,,0.00,weatherlink.com 1.10,2013-05-08 20:06:00,
2013-05-08 16:21:00,66.1,56.0,30.02,SSW,201,2.0,-999.0,70,-99.99,,,0.00,weatherlink.com 1.10,2013-05-08 20:21:00,
2013-05-08 16:36:00,66.6,57.0,30.02,West,260,0.0,-999.0,70,-99.99,,,0.00,weatherlink.com 1.10,2013-05-08 20:36:00,
2013-05-08 16:51:00,66.2,57.0,30.02,WSW,246,1.0,-999.0,71,-99.99,,,0.00,weatherlink.com 1.10,2013-05-08 20:51:00,
2013-05-08 17:06:00,66.4,56.0,30.02,WNW,283,0.0,-999.0,69,-99.99,,,0.00,weatherlink.com 1.10,2013-05-08 21:06:00,
2013-05-08 17:21:00,66.8,55.0,30.02,NNW,330,1.0,-999.0,65,-99.99,,,0.00,weatherlink.com 1.10,2013-05-08 21:21:00,
2013-05-08 17:36:00,68.8,53.0,30.02,West,262,4.0,-999.0,58,-99.99,,,0.00,weatherlink.com 1.10,2013-05-08 21:36:00,
2013-05-08 17:51:00,68.7,53.0,30.02,West,263,1.0,-999.0,58,-99.99,,,0.00,weatherlink.com 1.10,2013-05-08 21:51:00,
2013-05-08 18:06:00,68.6,56.0,30.02,South,186,1.0,-999.0,65,-99.99,,,0.00,weatherlink.com 1.10,2013-05-08 22:06:00,
2013-05-08 18:21:00,67.5,57.0,30.02,SW,236,1.0,-999.0,68,-99.99,,,0.00,weatherlink.com 1.10,2013-05-08 22:21:00,
2013-05-08 18:36:00,66.2,53.0,30.02,NNW,331,3.0,-999.0,63,-99.99,,,0.00,weatherlink.com 1.10,2013-05-08 22:36:00,
2013-05-08 18:51:00,65.6,53.0,30.02,NW,309,1.0,-999.0,64,-99.99,,,0.00,weatherlink.com 1.10,2013-05-08 22:51:00,
2013-05-08 19:06:00,66.9,54.0,30.03,WSW,250,3.0,-999.0,63,-99.99,,,0.00,weatherlink.com 1.10,2013-05-08 23:06:00,
2013-05-08 19:21:00,66.6,54.0,30.03,West,277,0.0,-999.0,64,-99.99,,,0.00,weatherlink.com 1.10,2013-05-08 23:21:00,
2013-05-08 19:36:00,65.6,54.0,30.04,NNW,336,1.0,-999.0,66,-99.99,,,0.00,weatherlink.com 1.10,2013-05-08 23:36:00,
2013-05-08 19:51:00,65.3,54.0,30.04,NW,323,0.0,-999.0,66,-99.99,,,0.00,weatherlink.com 1.10,2013-05-08 23:51:00,
2013-05-08 20:06:00,64.4,54.0,30.05,North,358,0.0,-999.0,68,-99.99,,,0.00,weatherlink.com 1.10,2013-05-09 00:06:00,
2013-05-08 20:21:00,63.7,54.0,30.05,NW,311,4.0,-999.0,70,-99.99,,,0.00,weatherlink.com 1.10,2013-05-09 00:21:00,
2013-05-08 20:36:00,63.3,54.0,30.06,NW,323,2.0,-999.0,71,-99.99,,,0.00,weatherlink.com 1.10,2013-05-09 00:36:00,
2013-05-08 20:51:00,62.7,54.0,30.06,NNW,333,4.0,-999.0,73,-99.99,,,0.00,weatherlink.com 1.10,2013-05-09 00:51:00,
2013-05-08 21:06:00,62.0,54.0,30.07,NNW,333,4.0,-999.0,75,-99.99,,,0.00,weatherlink.com 1.10,2013-05-09 01:06:00,
2013-05-08 21:21:00,61.8,54.0,30.07,NNE,30,4.0,-999.0,75,-99.99,,,0.00,weatherlink.com 1.10,2013-05-09 01:21:00,
2013-05-08 21:36:00,61.4,54.0,30.08,NE,37,5.0,-999.0,76,-99.99,,,0.00,weatherlink.com 1.10,2013-05-09 01:36:00,
2013-05-08 21:51:00,61.1,54.0,30.08,NNE,30,2.0,-999.0,77,-99.99,,,0.00,weatherlink.com 1.10,2013-05-09 01:51:00,
2013-05-08 22:06:00,61.2,54.0,30.08,NE,51,2.0,-999.0,76,-99.99,,,0.00,weatherlink.com 1.10,2013-05-09 02:06:00,
2013-05-08 22:21:00,61.7,53.0,30.08,North,349,3.0,-999.0,74,-99.99,,,0.00,weatherlink.com 1.10,2013-05-09 02:21:00,
2013-05-08 22:36:00,61.7,53.0,30.09,NNW,338,3.0,-999.0,73,-99.99,,,0.00,weatherlink.com 1.10,2013-05-09 02:36:00,
2013-05-08 22:51:00,61.7,53.0,30.09,North,349,2.0,-999.0,73,-99.99,,,0.00,weatherlink.com 1.10,2013-05-09 02:51:00,
2013-05-08 23:06:00,61.2,53.0,30.09,NW,318,3.0,-999.0,75,-99.99,,,0.00,weatherlink.com 1.10,2013-05-09 03:06:00,
2013-05-08 23:21:00,60.0,54.0,30.09,NNW,340,5.0,-999.0,80,-99.99,,,0.00,weatherlink.com 1.10,2013-05-09 03:21:00,
2013-05-08 23:36:00,60.1,54.0,30.09,NE,37,6.0,-999.0,79,-99.99,,,0.00,weatherlink.com 1.10,2013-05-09 03:36:00,
2013-05-08 23:51:00,61.1,53.0,30.08,NNE,15,3.0,-999.0,75,-99.99,,,0.00,weatherlink.com 1.10,2013-05-09 03:51:00,